createdAt,value
2018-06-01T00:01:39.811Z,18.90
2018-06-01T00:04:08.062Z,18.90
2018-06-01T00:06:37.127Z,18.70
2018-06-01T00:09:06.251Z,18.70
2018-06-01T00:11:34.549Z,18.50
2018-06-01T00:14:03.537Z,18.20
2018-06-01T00:16:31.805Z,18.20
2018-06-01T00:19:00.798Z,18.10
2018-06-01T00:21:29.077Z,18.10
2018-06-01T00:23:57.295Z,18.10
2018-06-01T00:26:25.568Z,18.10
2018-06-01T00:28:53.780Z,18.20
2018-06-01T00:31:22.805Z,18.30
2018-06-01T00:33:51.092Z,18.30
2018-06-01T00:36:20.132Z,18.40
2018-06-01T00:38:48.392Z,18.40
2018-06-01T00:41:16.600Z,18.40
2018-06-01T00:43:45.614Z,18.70
2018-06-01T00:46:13.863Z,18.70
2018-06-01T00:48:42.897Z,18.80
2018-06-01T00:51:11.155Z,18.80
2018-06-01T00:53:40.165Z,18.60
2018-06-01T00:56:08.388Z,18.60
2018-06-01T00:58:36.633Z,18.70
2018-06-01T01:01:04.855Z,18.60
2018-06-01T01:03:33.125Z,18.60
2018-06-01T01:06:02.116Z,18.50
2018-06-01T01:08:30.380Z,18.50
2018-06-01T01:10:58.761Z,18.40
2018-06-01T01:13:26.972Z,18.40
2018-06-01T01:15:56.020Z,18.20
2018-06-01T01:18:25.039Z,18.40
2018-06-01T01:20:54.049Z,18.30
2018-06-01T01:23:22.264Z,18.20
2018-06-01T01:25:50.545Z,18.20
2018-06-01T01:28:18.760Z,18.30
2018-06-01T01:30:47.112Z,18.30
2018-06-01T01:33:16.092Z,18.30
2018-06-01T01:35:44.347Z,18.20
2018-06-01T01:38:12.548Z,18.10
2018-06-01T01:40:40.818Z,18.20
2018-06-01T01:43:09.812Z,18.20
2018-06-01T01:45:38.076Z,18.20
2018-06-01T01:48:07.080Z,18.20
2018-06-01T01:50:37.412Z,18.20
2018-06-01T01:53:05.664Z,18.20
2018-06-01T01:55:34.693Z,18.40
2018-06-01T01:58:02.915Z,18.30
2018-06-01T02:00:31.970Z,18.10
2018-06-01T02:03:00.195Z,18.10
2018-06-01T02:05:29.202Z,18.20
2018-06-01T02:07:58.224Z,18.10
2018-06-01T02:10:26.472Z,18.10
2018-06-01T02:12:54.744Z,18.00
2018-06-01T02:15:22.993Z,18.00
2018-06-01T02:17:51.262Z,17.90
2018-06-01T02:20:19.563Z,17.90
2018-06-01T02:22:48.594Z,18.10
2018-06-01T02:25:16.801Z,18.10
2018-06-01T02:27:45.837Z,18.00
2018-06-01T02:30:14.864Z,18.00
2018-06-01T02:32:43.115Z,18.00
2018-06-01T02:35:11.329Z,17.80
2018-06-01T02:37:39.605Z,17.80
2018-06-01T02:40:07.837Z,17.60
2018-06-01T02:42:36.884Z,17.50
2018-06-01T02:45:05.887Z,17.50
2018-06-01T02:47:34.918Z,17.40
2018-06-01T02:50:03.164Z,17.40
2018-06-01T02:52:31.439Z,17.40
2018-06-01T02:54:59.664Z,17.50
2018-06-01T02:57:27.957Z,17.60
2018-06-01T02:59:56.936Z,18.00
2018-06-01T03:02:25.184Z,18.00
2018-06-01T03:04:53.404Z,18.20
2018-06-01T03:07:21.616Z,18.20
2018-06-01T03:09:50.629Z,18.00
2018-06-01T03:12:18.860Z,18.00
2018-06-01T03:14:47.880Z,17.60
2018-06-01T03:17:16.156Z,17.60
2018-06-01T03:19:44.392Z,17.40
2018-06-01T03:22:13.587Z,17.70
2018-06-01T03:24:41.829Z,17.90
2018-06-01T03:27:10.076Z,17.70
2018-06-01T03:29:38.324Z,17.50
2018-06-01T03:32:06.556Z,17.50
2018-06-01T03:34:34.843Z,17.40
2018-06-01T03:37:03.903Z,17.40
2018-06-01T03:39:32.112Z,17.40
2018-06-01T03:42:01.125Z,17.20
2018-06-01T03:44:29.373Z,17.10
2018-06-01T03:46:57.635Z,17.00
2018-06-01T03:49:25.840Z,17.10
2018-06-01T03:51:56.000Z,17.00
2018-06-01T03:54:24.221Z,17.00
2018-06-01T03:56:53.248Z,17.00
2018-06-01T03:59:21.468Z,17.00
2018-06-01T04:01:49.740Z,17.10
2018-06-01T04:04:17.956Z,17.20
2018-06-01T04:06:46.197Z,17.10
2018-06-01T04:09:15.164Z,17.30
2018-06-01T04:11:43.424Z,17.30
2018-06-01T04:14:11.971Z,17.20
2018-06-01T04:16:40.264Z,17.20
2018-06-01T04:19:08.484Z,17.20
2018-06-01T04:21:36.743Z,17.10
2018-06-01T04:24:04.956Z,17.10
2018-06-01T04:26:33.176Z,17.30
2018-06-01T04:29:01.419Z,17.10
2018-06-01T04:31:29.666Z,17.20
2018-06-01T04:33:57.908Z,17.10
2018-06-01T04:36:26.123Z,17.10
2018-06-01T04:38:55.132Z,17.30
2018-06-01T04:41:24.144Z,17.40
2018-06-01T04:43:53.175Z,17.30
2018-06-01T04:46:21.433Z,17.30
2018-06-01T04:48:49.706Z,17.30
2018-06-01T04:51:18.295Z,17.40
2018-06-01T04:53:46.532Z,17.50
2018-06-01T04:56:15.520Z,17.40
2018-06-01T04:58:44.529Z,17.50
2018-06-01T05:01:12.760Z,17.50
2018-06-01T05:03:41.016Z,17.50
2018-06-01T05:06:09.267Z,17.50
2018-06-01T05:08:37.540Z,17.60
2018-06-01T05:11:06.277Z,17.60
2018-06-01T05:13:34.569Z,17.70
2018-06-01T05:16:02.815Z,17.70
2018-06-01T05:18:31.070Z,17.70
2018-06-01T05:21:00.064Z,17.60
2018-06-01T05:23:29.096Z,17.70
2018-06-01T05:25:58.077Z,17.80
2018-06-01T05:28:26.292Z,17.80
2018-06-01T05:30:54.654Z,17.80
2018-06-01T05:33:23.633Z,17.80
2018-06-01T05:35:51.889Z,17.80
2018-06-01T05:38:20.120Z,17.80
2018-06-01T05:40:49.147Z,17.80
2018-06-01T05:43:17.377Z,17.80
2018-06-01T05:45:45.619Z,18.00
2018-06-01T05:48:14.595Z,18.20
2018-06-01T05:50:43.629Z,18.30
2018-06-01T05:53:11.869Z,18.30
2018-06-01T05:55:40.139Z,18.50
2018-06-01T05:58:08.349Z,18.50
2018-06-01T06:00:36.620Z,18.60
2018-06-01T06:03:04.832Z,18.60
2018-06-01T06:05:33.072Z,18.80
2018-06-01T06:08:01.364Z,18.80
2018-06-01T06:10:29.607Z,18.90
2018-06-01T06:12:58.608Z,19.00
2018-06-01T06:15:26.893Z,19.00
2018-06-01T06:17:55.137Z,19.30
2018-06-01T06:20:24.259Z,19.70
2018-06-01T06:22:52.481Z,19.70
2018-06-01T06:25:21.499Z,19.60
2018-06-01T06:27:49.800Z,19.60
2018-06-01T06:30:18.069Z,19.90
2018-06-01T06:32:46.403Z,19.90
2018-06-01T06:35:14.617Z,20.20
2018-06-01T06:37:42.883Z,20.30
2018-06-01T06:40:11.090Z,20.20
2018-06-01T06:42:39.365Z,20.30
2018-06-01T06:45:07.582Z,20.40
2018-06-01T06:47:35.847Z,20.70
2018-06-01T06:50:04.163Z,20.80
2018-06-01T06:52:32.757Z,20.70
2018-06-01T06:55:01.004Z,20.70
2018-06-01T06:57:29.329Z,21.00
2018-06-01T06:59:57.559Z,21.10
2018-06-01T07:02:25.816Z,21.00
2018-06-01T07:04:54.797Z,20.30
2018-06-01T07:07:23.836Z,20.10
2018-06-01T07:09:52.409Z,20.10
2018-06-01T07:12:20.680Z,19.70
2018-06-01T07:14:48.887Z,19.30
2018-06-01T07:17:17.163Z,19.40
2018-06-01T07:19:45.418Z,19.40
2018-06-01T07:22:13.983Z,19.10
2018-06-01T07:24:42.229Z,18.80
2018-06-01T07:27:10.490Z,18.80
2018-06-01T07:29:38.739Z,18.70
2018-06-01T07:32:06.968Z,18.70
2018-06-01T07:34:35.231Z,19.00
2018-06-01T07:37:03.476Z,18.90
2018-06-01T07:39:31.727Z,18.90
2018-06-01T07:41:59.933Z,18.90
2018-06-01T07:44:28.180Z,19.10
2018-06-01T07:46:56.479Z,19.20
2018-06-01T07:49:24.691Z,19.40
2018-06-01T07:51:52.897Z,19.50
2018-06-01T07:54:21.592Z,19.30
2018-06-01T07:56:49.832Z,19.20
2018-06-01T07:59:18.086Z,19.30
2018-06-01T08:01:46.309Z,19.70
2018-06-01T08:04:15.344Z,20.00
2018-06-01T08:06:43.591Z,20.00
2018-06-01T08:09:11.873Z,19.90
2018-06-01T08:11:40.172Z,20.10
2018-06-01T08:14:08.412Z,20.20
2018-06-01T08:16:37.448Z,20.10
2018-06-01T08:19:05.721Z,20.10
2018-06-01T08:21:33.992Z,20.10
2018-06-01T08:24:02.237Z,20.00
2018-06-01T08:26:31.267Z,19.80
2018-06-01T08:28:59.481Z,19.80
2018-06-01T08:31:28.864Z,19.90
2018-06-01T08:33:57.095Z,19.90
2018-06-01T08:36:26.104Z,21.20
2018-06-01T08:38:54.324Z,21.20
2018-06-01T08:41:22.697Z,21.70
2018-06-01T08:43:51.125Z,22.20
2018-06-01T08:46:19.575Z,22.90
2018-06-01T08:48:48.029Z,22.70
2018-06-01T08:51:17.508Z,22.60
2018-06-01T08:53:46.068Z,22.60
2018-06-01T08:56:14.786Z,22.60
2018-06-01T08:58:43.405Z,23.00
2018-06-01T09:01:12.995Z,23.20
2018-06-01T09:03:41.913Z,23.20
2018-06-01T09:06:11.352Z,24.20
2018-06-01T09:08:39.597Z,24.30
2018-06-01T09:11:08.605Z,25.60
2018-06-01T09:13:36.916Z,25.60
2018-06-01T09:16:05.187Z,26.20
2018-06-01T09:18:33.451Z,25.30
2018-06-01T09:21:02.460Z,24.10
2018-06-01T09:23:30.707Z,24.10
2018-06-01T09:25:58.936Z,24.30
2018-06-01T09:28:27.209Z,24.80
2018-06-01T09:30:55.628Z,24.20
2018-06-01T09:33:23.971Z,24.40
2018-06-01T09:35:52.200Z,25.80
2018-06-01T09:38:20.447Z,26.60
2018-06-01T09:40:48.676Z,26.00
2018-06-01T09:43:17.757Z,25.00
2018-06-01T09:45:46.043Z,25.00
2018-06-01T09:48:15.074Z,25.60
2018-06-01T09:50:43.413Z,25.60
2018-06-01T09:53:11.715Z,24.50
2018-06-01T09:55:39.940Z,24.70
2018-06-01T09:58:08.248Z,25.00
2018-06-01T10:00:42.248Z,25.80
2018-06-01T10:03:11.321Z,25.60
2018-06-01T10:05:39.550Z,25.60
2018-06-01T10:08:07.796Z,25.20
2018-06-01T10:10:36.198Z,24.90
2018-06-01T10:13:04.529Z,25.50
2018-06-01T10:15:33.605Z,24.90
2018-06-01T10:18:01.944Z,24.80
2018-06-01T10:20:30.277Z,24.50
2018-06-01T10:22:58.487Z,24.60
2018-06-01T10:25:26.848Z,24.00
2018-06-01T10:27:55.888Z,24.90
2018-06-01T10:30:24.156Z,24.80
2018-06-01T10:32:52.407Z,25.30
2018-06-01T10:35:20.634Z,24.90
2018-06-01T10:37:48.871Z,25.50
2018-06-01T10:40:17.227Z,25.70
2018-06-01T10:42:45.463Z,25.60
2018-06-01T10:45:14.128Z,25.50
2018-06-01T10:47:42.856Z,26.60
2018-06-01T10:50:11.166Z,26.40
2018-06-01T10:52:39.395Z,26.30
2018-06-01T10:55:08.439Z,26.00
2018-06-01T10:57:36.695Z,25.90
2018-06-01T11:00:04.939Z,25.70
2018-06-01T11:02:33.173Z,26.10
2018-06-01T11:05:01.412Z,26.20
2018-06-01T11:07:29.655Z,26.70
2018-06-01T11:09:57.907Z,26.30
2018-06-01T11:12:26.132Z,25.20
2018-06-01T11:14:54.344Z,24.70
2018-06-01T11:17:22.599Z,25.10
2018-06-01T11:19:50.807Z,25.10
2018-06-01T11:22:19.079Z,25.90
2018-06-01T11:24:47.279Z,26.60
2018-06-01T11:27:15.556Z,26.00
2018-06-01T11:29:44.547Z,26.60
2018-06-01T11:32:13.580Z,26.90
2018-06-01T11:34:41.788Z,26.80
2018-06-01T11:37:10.023Z,26.40
2018-06-01T11:39:38.234Z,26.20
2018-06-01T11:42:06.495Z,26.10
2018-06-01T11:44:34.742Z,26.10
2018-06-01T11:47:03.011Z,27.20
2018-06-01T11:49:31.297Z,28.30
2018-06-01T11:51:59.570Z,28.90
2018-06-01T11:54:28.128Z,28.60
2018-06-01T11:56:56.395Z,28.00
2018-06-01T11:59:24.630Z,27.10
2018-06-01T12:01:52.880Z,26.90
2018-06-01T12:04:21.435Z,27.10
2018-06-01T12:06:49.716Z,27.80
2018-06-01T12:09:17.925Z,27.40
2018-06-01T12:11:46.156Z,26.20
2018-06-01T12:14:14.403Z,25.60
2018-06-01T12:16:42.604Z,25.30
2018-06-01T12:19:10.845Z,25.30
2018-06-01T12:21:39.092Z,25.70
2018-06-01T12:24:08.096Z,27.20
2018-06-01T12:26:37.445Z,27.80
2018-06-01T12:29:05.696Z,27.80
2018-06-01T12:31:34.868Z,28.00
2018-06-01T12:34:03.106Z,28.00
2018-06-01T12:36:31.335Z,28.30
2018-06-01T12:39:00.350Z,28.40
2018-06-01T12:41:28.596Z,28.30
2018-06-01T12:43:57.632Z,28.10
2018-06-01T12:46:25.838Z,28.10
2018-06-01T12:48:54.108Z,27.40
2018-06-01T12:51:23.259Z,27.30
2018-06-01T12:53:51.526Z,27.50
2018-06-01T12:56:19.766Z,27.20
2018-06-01T12:58:48.008Z,27.10
2018-06-01T13:01:17.767Z,27.30
2018-06-01T13:03:46.899Z,27.30
2018-06-01T13:06:15.903Z,27.00
2018-06-01T13:08:44.170Z,26.90
2018-06-01T13:11:12.421Z,26.50
2018-06-01T13:13:40.687Z,26.60
2018-06-01T13:16:08.911Z,26.60
2018-06-01T13:18:37.128Z,26.20
2018-06-01T13:21:05.383Z,26.40
2018-06-01T13:23:33.600Z,27.40
2018-06-01T13:26:01.844Z,27.60
2018-06-01T13:28:30.079Z,28.00
2018-06-01T13:30:59.093Z,28.70
2018-06-01T13:33:28.092Z,28.70
2018-06-01T13:35:56.381Z,28.70
2018-06-01T13:38:25.360Z,26.70
2018-06-01T13:40:53.654Z,26.70
2018-06-01T13:43:21.868Z,27.20
2018-06-01T13:45:50.155Z,27.30
2018-06-01T13:48:18.383Z,27.70
2018-06-01T13:50:46.619Z,27.40
2018-06-01T13:53:14.868Z,27.40
2018-06-01T13:55:43.099Z,27.00
2018-06-01T13:58:11.308Z,26.70
2018-06-01T14:00:39.607Z,26.80
2018-06-01T14:03:09.316Z,26.90
2018-06-01T14:05:38.352Z,26.60
2018-06-01T14:08:06.560Z,26.50
2018-06-01T14:10:34.827Z,26.40
2018-06-01T14:13:03.047Z,26.50
2018-06-01T14:15:31.309Z,26.60
2018-06-01T14:17:59.519Z,26.60
2018-06-01T14:20:27.781Z,26.50
2018-06-01T14:22:56.755Z,26.60
2018-06-01T14:25:25.012Z,26.50
2018-06-01T14:27:53.218Z,26.50
2018-06-01T14:30:21.431Z,26.40
2018-06-01T14:32:49.713Z,26.40
2018-06-01T14:35:17.958Z,26.50
2018-06-01T14:37:46.220Z,26.40
2018-06-01T14:40:14.473Z,26.40
2018-06-01T14:42:43.496Z,26.40
2018-06-01T14:45:12.463Z,26.40
2018-06-01T14:47:40.733Z,26.40
2018-06-01T14:50:08.935Z,26.60
2018-06-01T14:52:37.201Z,26.40
2018-06-01T14:55:05.410Z,26.20
2018-06-01T14:57:33.671Z,26.20
2018-06-01T15:00:01.893Z,26.30
2018-06-01T15:02:30.957Z,26.40
2018-06-01T15:04:59.167Z,26.30
2018-06-01T15:07:27.448Z,26.20
2018-06-01T15:09:56.444Z,26.00
2018-06-01T15:12:25.291Z,26.00
2018-06-01T15:14:53.504Z,26.00
2018-06-01T15:17:21.775Z,25.80
2018-06-01T15:19:50.747Z,25.70
2018-06-01T15:22:19.033Z,25.70
2018-06-01T15:24:47.268Z,25.80
2018-06-01T15:27:15.688Z,25.60
2018-06-01T15:29:43.970Z,25.50
2018-06-01T15:32:12.546Z,25.50
2018-06-01T15:34:40.792Z,25.50
2018-06-01T15:37:09.036Z,25.60
2018-06-01T15:39:37.277Z,25.60
2018-06-01T15:42:05.515Z,25.80
2018-06-01T15:44:33.777Z,25.70
2018-06-01T15:47:02.014Z,25.50
2018-06-01T15:49:30.264Z,25.40
2018-06-01T15:51:58.489Z,25.20
2018-06-01T15:54:26.734Z,25.40
2018-06-01T15:56:55.763Z,25.30
2018-06-01T15:59:24.004Z,25.20
2018-06-01T16:01:52.219Z,25.10
2018-06-01T16:04:20.464Z,25.00
2018-06-01T16:06:48.690Z,25.20
2018-06-01T16:09:16.935Z,25.00
2018-06-01T16:11:45.224Z,25.10
2018-06-01T16:14:13.483Z,25.20
2018-06-01T16:16:41.708Z,25.30
2018-06-01T16:19:10.679Z,25.20
2018-06-01T16:21:39.008Z,25.20
2018-06-01T16:24:07.240Z,25.20
2018-06-01T16:26:35.475Z,25.40
2018-06-01T16:29:03.676Z,25.30
2018-06-01T16:31:31.948Z,25.30
2018-06-01T16:34:00.583Z,25.00
2018-06-01T16:36:28.828Z,24.90
2018-06-01T16:38:57.810Z,24.90
2018-06-01T16:41:26.820Z,24.80
2018-06-01T16:43:55.826Z,24.80
2018-06-01T16:46:24.106Z,24.80
2018-06-01T16:48:52.331Z,24.80
2018-06-01T16:51:20.601Z,24.80
2018-06-01T16:53:48.820Z,24.80
2018-06-01T16:56:17.086Z,24.80
2018-06-01T16:58:45.301Z,24.80
2018-06-01T17:01:13.541Z,24.80
2018-06-01T17:03:41.752Z,24.50
2018-06-01T17:06:10.004Z,24.40
2018-06-01T17:08:38.215Z,24.40
2018-06-01T17:11:06.475Z,24.20
2018-06-01T17:13:34.689Z,24.20
2018-06-01T17:16:02.916Z,24.20
2018-06-01T17:18:31.173Z,24.20
2018-06-01T17:20:59.387Z,24.30
2018-06-01T17:23:27.646Z,24.50
2018-06-01T17:25:56.643Z,24.20
2018-06-01T17:28:24.888Z,24.20
2018-06-01T17:30:53.128Z,24.40
2018-06-01T17:33:22.134Z,24.40
2018-06-01T17:35:50.387Z,24.40
2018-06-01T17:38:18.676Z,24.30
2018-06-01T17:40:46.897Z,24.30
2018-06-01T17:43:15.183Z,23.90
2018-06-01T17:45:44.199Z,24.10
2018-06-01T17:48:12.473Z,24.10
2018-06-01T17:50:40.783Z,23.90
2018-06-01T17:53:09.012Z,24.00
2018-06-01T17:55:37.232Z,24.00
2018-06-01T17:58:05.517Z,24.00
2018-06-01T18:00:33.749Z,23.90
2018-06-01T18:03:02.056Z,23.90
2018-06-01T18:05:30.296Z,23.90
2018-06-01T18:07:58.563Z,23.70
2018-06-01T18:10:26.777Z,23.60
2018-06-01T18:12:55.011Z,23.40
2018-06-01T18:15:23.237Z,23.30
2018-06-01T18:17:51.512Z,23.20
2018-06-01T18:20:19.743Z,23.10
2018-06-01T18:22:47.991Z,23.10
2018-06-01T18:25:16.235Z,23.00
2018-06-01T18:27:44.476Z,22.90
2018-06-01T18:30:12.741Z,22.80
2018-06-01T18:32:40.967Z,22.70
2018-06-01T18:35:09.574Z,22.80
2018-06-01T18:37:38.148Z,22.70
2018-06-01T18:40:06.613Z,22.60
2018-06-01T18:42:34.941Z,22.60
2018-06-01T18:45:04.193Z,22.40
2018-06-01T18:47:32.537Z,22.40
2018-06-01T18:50:00.859Z,22.30
2018-06-01T18:52:30.391Z,22.10
2018-06-01T18:54:59.094Z,22.00
2018-06-01T18:57:27.365Z,22.00
2018-06-01T18:59:55.793Z,21.90
2018-06-01T19:02:24.184Z,21.90
2018-06-01T19:04:52.828Z,21.80
2018-06-01T19:07:21.158Z,21.70
2018-06-01T19:09:50.305Z,21.50
2018-06-01T19:12:18.725Z,21.50
2018-06-01T19:14:48.000Z,21.30
2018-06-01T19:17:16.708Z,21.30
2018-06-01T19:19:45.281Z,21.30
2018-06-01T19:22:13.772Z,21.30
2018-06-01T19:24:42.403Z,21.20
2018-06-01T19:27:10.849Z,21.10
2018-06-01T19:29:39.210Z,21.00
2018-06-01T19:32:07.905Z,21.00
2018-06-01T19:34:36.259Z,21.00
2018-06-01T19:37:04.531Z,21.00
2018-06-01T19:39:32.773Z,20.90
2018-06-01T19:42:01.018Z,20.80
2018-06-01T19:44:29.284Z,20.70
2018-06-01T19:46:57.523Z,20.70
2018-06-01T19:49:25.756Z,20.80
2018-06-01T19:51:54.760Z,20.70
2018-06-01T19:54:23.003Z,20.70
2018-06-01T19:56:51.247Z,20.60
2018-06-01T19:59:20.268Z,20.70
2018-06-01T20:01:48.605Z,20.60
2018-06-01T20:04:16.864Z,20.60
2018-06-01T20:06:45.099Z,20.60
2018-06-01T20:09:13.353Z,20.50
2018-06-01T20:11:41.581Z,20.60
2018-06-01T20:14:09.885Z,20.90
2018-06-01T20:16:38.072Z,20.70
2018-06-01T20:19:07.073Z,20.40
2018-06-01T20:21:35.313Z,20.40
2018-06-01T20:24:04.347Z,20.30
2018-06-01T20:26:32.620Z,20.20
2018-06-01T20:29:01.931Z,20.20
2018-06-01T20:31:35.686Z,20.30
2018-06-01T20:34:03.928Z,20.00
2018-06-01T20:36:32.164Z,19.80
2018-06-01T20:39:00.395Z,19.70
2018-06-01T20:41:28.672Z,19.80
2018-06-01T20:43:57.052Z,19.70
2018-06-01T20:46:25.371Z,19.60
2018-06-01T20:48:53.616Z,19.70
2018-06-01T20:51:22.627Z,19.60
2018-06-01T20:53:51.020Z,19.50
2018-06-01T20:56:19.259Z,19.50
2018-06-01T20:58:47.499Z,19.40
2018-06-01T21:01:17.870Z,19.40
2018-06-01T21:03:46.115Z,19.40
2018-06-01T21:06:15.143Z,19.30
2018-06-01T21:08:44.127Z,19.30
2018-06-01T21:11:13.140Z,19.20
2018-06-01T21:13:41.349Z,19.20
2018-06-01T21:16:09.635Z,19.20
2018-06-01T21:18:37.854Z,19.20
2018-06-01T21:21:06.189Z,19.30
2018-06-01T21:23:34.373Z,19.20
2018-06-01T21:26:02.638Z,19.10
2018-06-01T21:28:30.848Z,19.10
2018-06-01T21:30:59.127Z,19.00
2018-06-01T21:33:27.360Z,19.20
2018-06-01T21:35:55.624Z,19.00
2018-06-01T21:38:23.826Z,18.90
2018-06-01T21:40:52.866Z,18.80
2018-06-01T21:43:21.099Z,18.80
2018-06-01T21:45:50.125Z,18.90
2018-06-01T21:48:18.340Z,18.80
2018-06-01T21:50:46.579Z,18.90
2018-06-01T21:53:14.796Z,19.00
2018-06-01T21:55:43.036Z,19.20
2018-06-01T21:58:11.272Z,19.20
2018-06-01T22:00:39.628Z,19.40
2018-06-01T22:03:08.671Z,19.20
2018-06-01T22:05:37.374Z,19.10
2018-06-01T22:08:05.649Z,19.10
2018-06-01T22:10:33.890Z,18.90
2018-06-01T22:13:02.165Z,18.70
2018-06-01T22:15:30.412Z,18.70
2018-06-01T22:17:58.663Z,18.80
2018-06-01T22:20:26.927Z,18.70
2018-06-01T22:22:55.177Z,18.80
2018-06-01T22:25:23.445Z,18.50
2018-06-01T22:27:51.729Z,18.30
2018-06-01T22:30:19.949Z,18.30
2018-06-01T22:32:48.988Z,18.20
2018-06-01T22:35:17.201Z,18.10
2018-06-01T22:37:46.237Z,18.00
2018-06-01T22:40:14.462Z,18.00
2018-06-01T22:42:43.519Z,18.00
2018-06-01T22:45:11.734Z,18.00
2018-06-01T22:47:40.764Z,17.90
2018-06-01T22:50:09.740Z,17.90
2018-06-01T22:52:38.145Z,18.00
2018-06-01T22:55:06.352Z,18.00
2018-06-01T22:57:34.593Z,17.90
2018-06-01T23:00:02.823Z,17.80
2018-06-01T23:02:31.831Z,17.90
2018-06-01T23:05:00.846Z,17.90
2018-06-01T23:07:29.074Z,17.90
2018-06-01T23:09:57.345Z,18.10
2018-06-01T23:12:25.557Z,18.20
2018-06-01T23:14:54.559Z,18.50
2018-06-01T23:17:22.788Z,18.50
2018-06-01T23:19:51.849Z,18.60
2018-06-01T23:22:20.109Z,18.60
2018-06-01T23:24:48.379Z,18.40
2018-06-01T23:27:16.612Z,18.40
2018-06-01T23:29:45.642Z,18.40
2018-06-01T23:32:13.871Z,18.40
2018-06-01T23:34:42.924Z,18.40
2018-06-01T23:37:11.173Z,18.40
2018-06-01T23:39:39.460Z,18.10
2018-06-01T23:42:07.705Z,17.90
2018-06-01T23:44:35.911Z,17.60
2018-06-01T23:47:04.177Z,17.40
2018-06-01T23:49:32.428Z,17.40
2018-06-01T23:52:00.699Z,17.30
2018-06-01T23:54:28.919Z,17.40
2018-06-01T23:56:57.157Z,17.40
2018-06-01T23:59:26.145Z,17.30
